Time;durP1;ratioP1;P1;durP2;ratioP2;P2;SDS_P1;SDS_P2;PMS_P1;PMS_P2;Temp;Humidity;BMP_temperature;BMP_pressure;BME280_temperature;BME280_humidity;BME280_pressure;Samples;Min_cycle;Max_cycle;Signal;HPM_P1;HPM_P2
2020/12/07 15:44:23;;;;;;;32.45;15.90;;;-4.50;78.50;;;;;;5071076;28;20809;-91
2020/12/07 15:46:52;;;;;;;25.15;11.90;;;-4.50;78.10;;;;;;5062809;28;20029;-95
2020/12/07 15:49:18;;;;;;;20.80;10.63;;;-4.40;78.70;;;;;;5050357;28;20017;-94
2020/12/07 15:51:48;;;;;;;22.67;11.20;;;-4.20;77.10;;;;;;5041988;28;20037;-92
2020/12/07 15:54:13;;;;;;;19.75;9.82;;;-4.10;77.20;;;;;;5022132;28;20049;-93
2020/12/07 15:56:42;;;;;;;15.75;8.50;;;-4.10;76.80;;;;;;5056076;28;20064;-93
2020/12/07 15:59:07;;;;;;;23.42;11.75;;;-4.00;75.60;;;;;;5042533;28;20022;-94
2020/12/07 16:01:36;;;;;;;21.92;11.90;;;-3.80;74.30;;;;;;5035408;28;20384;-94
2020/12/07 16:04:02;;;;;;;18.25;9.95;;;-3.80;73.50;;;;;;5029463;28;20025;-93
2020/12/07 16:06:29;;;;;;;21.35;10.27;;;-3.60;73.90;;;;;;5022895;28;20420;-93
2020/12/07 16:08:55;;;;;;;16.92;9.60;;;-3.70;73.60;;;;;;5015414;28;20021;-92
2020/12/07 16:11:23;;;;;;;17.65;8.88;;;-3.70;73.40;;;;;;5056478;28;20473;-94
2020/12/07 16:13:49;;;;;;;19.85;8.32;;;-3.70;73.70;;;;;;5040207;28;20029;-93
2020/12/07 16:16:19;;;;;;;21.20;11.02;;;-3.70;73.50;;;;;;5044543;28;20111;-93
2020/12/07 16:18:49;;;;;;;16.65;8.75;;;-3.70;73.80;;;;;;5044480;28;20060;-94
2020/12/07 16:21:15;;;;;;;27.00;10.50;;;-3.70;73.80;;;;;;5043345;28;20024;-93
2020/12/07 16:23:48;;;;;;;26.63;13.82;;;-3.70;73.40;;;;;;5056976;28;20025;-94
2020/12/07 16:26:14;;;;;;;30.20;12.65;;;-3.80;73.40;;;;;;5054371;28;20032;-91
2020/12/07 16:28:40;;;;;;;18.00;11.35;;;-3.80;73.50;;;;;;5050682;28;20377;-92
2020/12/07 16:31:05;;;;;;;23.25;12.60;;;-3.80;73.40;;;;;;5032732;28;20052;-94
2020/12/07 16:33:35;;;;;;;21.98;9.82;;;-3.80;73.30;;;;;;5031653;28;20091;-92
2020/12/07 16:36:02;;;;;;;35.22;15.10;;;-3.80;73.20;;;;;;5032238;28;20029;-92
2020/12/07 16:38:28;;;;;;;25.90;11.85;;;-3.80;73.70;;;;;;5032838;28;20033;-92
2020/12/07 16:40:54;;;;;;;29.63;12.07;;;-3.80;74.00;;;;;;5036554;28;20112;-96
2020/12/07 16:43:20;;;;;;;26.08;13.50;;;-3.80;74.10;;;;;;5023965;28;20054;-93
2020/12/07 16:45:46;;;;;;;23.75;12.82;;;-3.80;74.30;;;;;;5001655;28;20038;-94
2020/12/07 16:48:18;;;;;;;25.90;12.50;;;-3.90;74.40;;;;;;5005314;28;20033;-93
2020/12/07 16:50:44;;;;;;;19.42;10.43;;;-3.90;74.40;;;;;;5012625;28;20029;-92
2020/12/07 16:53:10;;;;;;;22.70;10.32;;;-3.90;74.50;;;;;;5018162;28;20113;-93
2020/12/07 16:55:35;;;;;;;23.67;10.93;;;-3.90;74.60;;;;;;4998349;28;20037;-91
2020/12/07 16:58:01;;;;;;;24.55;12.07;;;-3.90;74.50;;;;;;5002370;28;20030;-93
2020/12/07 17:00:29;;;;;;;33.60;12.52;;;-4.00;74.80;;;;;;5032881;28;20040;-93
2020/12/07 17:02:56;;;;;;;30.42;16.13;;;-4.00;74.30;;;;;;4998616;28;20033;-94
2020/12/07 17:05:22;;;;;;;28.90;11.00;;;-4.00;74.40;;;;;;4998467;28;20045;-92
2020/12/07 17:07:49;;;;;;;40.95;21.27;;;-4.00;74.00;;;;;;4998895;28;20022;-92
2020/12/07 17:10:17;;;;;;;26.23;12.10;;;-4.00;74.60;;;;;;5020436;28;20168;-94
2020/12/07 17:12:43;;;;;;;20.60;9.70;;;-4.10;74.90;;;;;;5015714;28;20037;-94
2020/12/07 17:15:09;;;;;;;22.30;11.73;;;-4.10;74.80;;;;;;4999795;28;20037;-95
2020/12/07 17:17:35;;;;;;;24.58;10.05;;;-4.00;74.90;;;;;;5015818;28;20038;-96
2020/12/07 17:20:01;;;;;;;18.25;9.13;;;-4.10;75.10;;;;;;4998241;28;20048;-93
2020/12/07 17:22:29;;;;;;;15.48;9.57;;;-4.10;75.40;;;;;;4980630;28;20041;-94
2020/12/07 17:24:56;;;;;;;17.63;10.13;;;-4.10;75.40;;;;;;5020728;28;20080;-96
2020/12/07 17:27:22;;;;;;;20.17;10.55;;;-4.10;75.70;;;;;;4993876;28;20026;-95
2020/12/07 17:29:49;;;;;;;20.38;9.68;;;-4.10;75.80;;;;;;5016320;28;20431;-95
2020/12/07 17:32:18;;;;;;;35.50;13.02;;;-4.10;76.00;;;;;;4998052;28;20398;-96
2020/12/07 17:34:43;;;;;;;23.60;10.10;;;-4.10;76.20;;;;;;5013097;28;20034;-94
2020/12/07 17:37:10;;;;;;;25.08;12.93;;;-4.10;76.40;;;;;;4984969;28;20072;-95
2020/12/07 17:39:39;;;;;;;24.63;11.75;;;-4.20;76.10;;;;;;4990083;28;20053;-93
2020/12/07 17:42:11;;;;;;;23.45;11.63;;;-4.10;76.10;;;;;;4992220;28;20061;-93
2020/12/07 17:44:39;;;;;;;22.25;11.43;;;-4.10;75.90;;;;;;5023900;28;20120;-93
2020/12/07 17:47:05;;;;;;;27.10;12.65;;;-4.20;76.30;;;;;;5017146;28;20025;-96
2020/12/07 17:49:35;;;;;;;25.50;12.25;;;-4.20;76.20;;;;;;5010670;28;20080;-96
2020/12/07 17:52:01;;;;;;;26.55;13.30;;;-4.20;76.30;;;;;;4999218;28;20034;-95
2020/12/07 17:54:27;;;;;;;39.95;16.00;;;-4.20;76.60;;;;;;4996445;28;20425;-95
2020/12/07 17:56:54;;;;;;;40.47;15.90;;;-4.20;76.80;;;;;;5033837;28;20026;-94
2020/12/07 17:59:21;;;;;;;25.48;12.00;;;-4.30;76.80;;;;;;5021479;28;20052;-92
2020/12/07 18:01:51;;;;;;;47.25;17.73;;;-4.30;76.90;;;;;;5017336;28;20026;-96
2020/12/07 18:04:17;;;;;;;40.38;16.27;;;-4.30;77.10;;;;;;5013145;28;20103;-93
2020/12/07 18:06:44;;;;;;;30.02;13.75;;;-4.30;77.40;;;;;;5013475;28;20029;-95
2020/12/07 18:09:10;;;;;;;30.30;12.77;;;-4.30;76.70;;;;;;5034224;28;20048;-94
2020/12/07 18:11:46;;;;;;;23.35;10.63;;;-4.30;76.30;;;;;;5017661;28;20018;-96
2020/12/07 18:14:16;;;;;;;30.83;13.50;;;-4.30;76.30;;;;;;5032226;28;20029;-95
2020/12/07 18:16:45;;;;;;;20.55;8.88;;;-4.40;76.60;;;;;;5012826;28;20025;-93
2020/12/07 18:19:13;;;;;;;19.90;9.18;;;-4.40;76.80;;;;;;5022270;28;20111;-95
2020/12/07 18:21:43;;;;;;;20.73;10.18;;;-4.40;77.10;;;;;;5009786;28;20029;-95
2020/12/07 18:24:09;;;;;;;17.42;8.98;;;-4.40;77.60;;;;;;5011090;28;20025;-95
2020/12/07 18:26:34;;;;;;;19.92;9.55;;;-4.40;77.50;;;;;;4990130;28;20034;-94
2020/12/07 18:29:00;;;;;;;15.73;8.88;;;-4.40;77.50;;;;;;4999821;28;20033;-94
2020/12/07 18:31:26;;;;;;;23.55;12.50;;;-4.50;77.50;;;;;;5012401;28;20064;-95
2020/12/07 18:33:51;;;;;;;24.23;12.25;;;-4.50;77.90;;;;;;5004611;28;20533;-95
2020/12/07 18:36:23;;;;;;;20.10;11.38;;;-4.50;78.30;;;;;;5018084;28;20052;-95
2020/12/07 18:38:50;;;;;;;19.52;9.68;;;-4.50;78.50;;;;;;5018213;28;20113;-96
2020/12/07 18:41:16;;;;;;;19.48;10.55;;;-4.50;78.70;;;;;;5011672;28;20033;-96
2020/12/07 18:43:42;;;;;;;24.65;10.55;;;-4.50;78.70;;;;;;4993154;28;20042;-95
2020/12/07 18:46:08;;;;;;;16.27;8.30;;;-4.50;78.70;;;;;;4986711;28;20538;-94
2020/12/07 18:48:33;;;;;;;16.45;9.38;;;-4.50;79.30;;;;;;4995526;28;20458;-96
2020/12/07 18:50:59;;;;;;;20.63;10.52;;;-4.50;79.10;;;;;;4996237;28;20029;-96
2020/12/07 18:53:25;;;;;;;25.58;13.50;;;-4.50;79.00;;;;;;5003392;28;20030;-96
2020/12/07 18:55:51;;;;;;;29.50;13.48;;;-4.50;79.00;;;;;;4994109;28;20029;-96
2020/12/07 18:58:17;;;;;;;27.23;11.50;;;-4.50;79.40;;;;;;4992632;28;20061;-96
2020/12/07 19:00:43;;;;;;;24.10;13.38;;;-4.50;79.30;;;;;;5008966;28;20067;-96
2020/12/07 19:03:08;;;;;;;22.42;13.07;;;-4.60;79.50;;;;;;4992813;28;20037;-94
2020/12/07 19:05:36;;;;;;;14.77;9.05;;;-4.50;80.00;;;;;;4996314;28;20113;-96
2020/12/07 19:08:03;;;;;;;19.23;10.77;;;-4.60;79.30;;;;;;4997460;28;20022;-96
2020/12/07 19:10:30;;;;;;;24.02;10.85;;;-4.60;79.50;;;;;;4986552;28;20034;-96
2020/12/07 19:12:56;;;;;;;29.15;10.52;;;-4.60;79.60;;;;;;5005750;28;20026;-94
2020/12/07 19:15:22;;;;;;;21.67;10.57;;;-4.60;79.70;;;;;;4996817;28;20033;-95
2020/12/07 19:17:49;;;;;;;22.25;10.85;;;-4.60;79.80;;;;;;4996276;28;20125;-96
2020/12/07 19:20:22;;;;;;;23.63;10.55;;;-4.60;79.60;;;;;;5001423;28;20077;-94
2020/12/07 19:22:49;;;;;;;18.83;9.55;;;-4.60;79.70;;;;;;5006857;28;20033;-96
2020/12/07 19:25:17;;;;;;;18.88;10.55;;;-4.60;79.10;;;;;;5001504;28;20041;-94
2020/12/07 19:34:22;;;;;;;30.75;12.57;;;-4.60;79.60;;;;;;4946283;29;20062;-96
2020/12/07 19:39:40;;;;;;;21.50;11.98;;;-4.70;80.00;;;;;;5144849;23;20051;-96
2020/12/07 19:42:06;;;;;;;16.35;9.98;;;-4.60;80.30;;;;;;4981827;23;20023;-95
2020/12/07 19:47:11;;;;;;;14.52;8.35;;;-4.70;79.90;;;;;;4962947;29;19922;-95
2020/12/07 19:49:38;;;;;;;13.23;7.22;;;-4.70;79.80;;;;;;4945512;29;20037;-94
2020/12/07 19:55:12;;;;;;;15.90;8.52;;;-4.70;79.70;;;;;;5068759;23;20092;-95
2020/12/07 19:57:40;;;;;;;16.60;10.18;;;-4.70;79.40;;;;;;4993289;23;20052;-96
2020/12/07 20:00:11;;;;;;;15.80;8.48;;;-4.80;79.70;;;;;;4918780;29;20032;-96
2020/12/07 20:02:43;;;;;;;17.00;9.40;;;-4.80;80.00;;;;;;4915347;29;20511;-95
2020/12/07 20:05:10;;;;;;;19.90;10.07;;;-4.80;79.70;;;;;;4920242;29;20028;-96
2020/12/07 20:07:36;;;;;;;18.90;11.63;;;-4.90;79.40;;;;;;4917168;29;20478;-95
2020/12/07 20:10:24;;;;;;;15.20;9.00;;;-4.90;79.40;;;;;;4912658;29;20025;-96
2020/12/07 21:36:45;;;;;;;26.83;12.68;;;-6.70;85.00;;;;;;5006389;28;20389;-93
